Time;durP1;ratioP1;P1;durP2;ratioP2;P2;SDS_P1;SDS_P2;PMS_P1;PMS_P2;Temp;Humidity;BMP_temperature;BMP_pressure;BME280_temperature;BME280_humidity;BME280_pressure;Samples;Min_cycle;Max_cycle;Signal;HPM_P1;HPM_P2
2021/09/03 00:00:22;;;;;;;;;;;19.60;99.90;;;;;;5094245;28;19909;-68
2021/09/03 00:02:48;;;;;;;;;;;19.60;99.90;;;;;;5092894;28;19916;-68
2021/09/03 00:05:19;;;;;;;;;;;19.80;99.90;;;;;;5092785;28;19973;-68
2021/09/03 00:07:47;;;;;;;;;;;19.80;99.90;;;;;;5092525;28;20320;-69
2021/09/03 00:10:16;;;;;;;;;;;19.80;99.90;;;;;;5092464;28;19908;-70
2021/09/03 00:12:43;;;;;;;;;;;20.00;99.90;;;;;;5092611;28;19931;-69
2021/09/03 00:15:11;;;;;;;;;;;20.10;99.90;;;;;;5091002;28;19908;-69
2021/09/03 00:17:38;;;;;;;;;;;20.10;99.90;;;;;;5091219;28;20260;-69
2021/09/03 00:20:06;;;;;;;;;;;20.30;99.90;;;;;;5092333;28;20054;-70
2021/09/03 00:22:33;;;;;;;;;;;20.20;99.90;;;;;;5092122;28;19954;-69
2021/09/03 00:24:59;;;;;;;;;;;20.30;99.90;;;;;;5092328;28;19973;-69
2021/09/03 00:27:26;;;;;;;;;;;20.50;99.90;;;;;;5092328;28;19915;-69
2021/09/03 00:29:53;;;;;;;;;;;20.50;99.90;;;;;;5091915;28;20409;-69
2021/09/03 00:32:19;;;;;;;;;;;20.50;99.90;;;;;;5092256;28;19920;-69
2021/09/03 00:34:46;;;;;;;;;;;20.50;99.90;;;;;;5092027;28;19962;-69
2021/09/03 00:37:12;;;;;;;;;;;20.70;99.90;;;;;;5091614;28;19919;-69
2021/09/03 00:39:39;;;;;;;;;;;20.70;99.90;;;;;;5090844;28;19939;-69
2021/09/03 00:42:11;;;;;;;;;;;20.80;99.90;;;;;;5094816;28;19919;-69
2021/09/03 00:44:38;;;;;;;;;;;20.80;99.90;;;;;;5095230;28;19955;-68
2021/09/03 00:47:05;;;;;;;;;;;20.80;99.90;;;;;;5095174;28;19924;-68
2021/09/03 00:49:31;;;;;;;;;;;20.90;99.90;;;;;;5093377;28;19916;-69
2021/09/03 00:51:59;;;;;;;;;;;20.90;99.90;;;;;;5100201;28;20270;-69
2021/09/03 00:54:27;;;;;;;;;;;21.00;99.90;;;;;;5100843;28;19919;-69
2021/09/03 00:56:54;;;;;;;;;;;21.10;99.90;;;;;;5104155;28;19923;-70
2021/09/03 00:59:21;;;;;;;;;;;21.20;99.90;;;;;;5088417;28;19912;-69
2021/09/03 01:01:47;;;;;;;;;;;21.20;99.90;;;;;;5117396;27;19927;-69
2021/09/03 01:04:14;;;;;;;;;;;21.10;99.90;;;;;;5095176;28;20045;-69
2021/09/03 01:06:42;;;;;;;;;;;21.30;99.90;;;;;;5095528;28;19913;-68
2021/09/03 01:09:09;;;;;;;;;;;21.40;99.90;;;;;;5095678;28;20385;-69
2021/09/03 01:11:37;;;;;;;;;;;21.80;99.90;;;;;;5092839;28;20005;-69
2021/09/03 01:14:03;;;;;;;;;;;22.30;99.90;;;;;;5094496;28;20271;-68
2021/09/03 01:16:32;;;;;;;;;;;22.70;99.90;;;;;;5094033;28;20057;-68
2021/09/03 01:19:00;;;;;;;;;;;22.90;99.60;;;;;;5095579;28;19915;-68
2021/09/03 01:21:27;;;;;;;;;;;22.90;99.10;;;;;;5095616;28;19962;-68
2021/09/03 01:23:57;;;;;;;;;;;23.10;99.30;;;;;;5095376;28;19912;-69
2021/09/03 01:26:26;;;;;;;;;;;23.40;98.30;;;;;;5096072;28;19909;-68
2021/09/03 01:28:53;;;;;;;;;;;23.50;98.10;;;;;;5095715;28;20018;-69
2021/09/03 01:31:20;;;;;;;;;;;23.30;98.20;;;;;;5095508;28;19954;-68
2021/09/03 01:33:48;;;;;;;;;;;23.00;98.50;;;;;;5094880;28;19959;-69
2021/09/03 01:36:15;;;;;;;;;;;22.70;98.70;;;;;;5095270;28;20052;-69
2021/09/03 01:38:43;;;;;;;;;;;22.60;99.10;;;;;;5114679;27;19977;-69
2021/09/03 01:41:10;;;;;;;;;;;22.40;99.20;;;;;;5094237;28;19916;-69
2021/09/03 01:43:37;;;;;;;;;;;22.50;99.20;;;;;;5075025;28;19921;-68
2021/09/03 01:46:07;;;;;;;;;;;22.50;99.20;;;;;;5093743;28;19923;-70
2021/09/03 01:48:34;;;;;;;;;;;22.60;98.90;;;;;;5118336;27;19931;-69
2021/09/03 01:51:01;;;;;;;;;;;22.50;99.90;;;;;;5087690;28;19932;-69
2021/09/03 01:53:28;;;;;;;;;;;22.30;99.90;;;;;;5093024;28;19996;-69
2021/09/03 01:55:54;;;;;;;;;;;22.20;99.90;;;;;;5094283;28;19974;-69
2021/09/03 01:58:22;;;;;;;;;;;22.10;99.90;;;;;;5093481;28;19912;-69
2021/09/03 02:00:51;;;;;;;;;;;21.90;99.90;;;;;;5092748;28;19912;-71
2021/09/03 02:03:18;;;;;;;;;;;21.70;99.90;;;;;;5092549;28;19989;-69
2021/09/03 02:05:45;;;;;;;;;;;21.60;99.90;;;;;;5093598;28;19912;-69
2021/09/03 02:08:11;;;;;;;;;;;21.50;99.90;;;;;;5093830;28;19931;-69
2021/09/03 02:10:38;;;;;;;;;;;21.50;99.90;;;;;;5094209;28;19912;-69
2021/09/03 02:13:05;;;;;;;;;;;21.50;99.90;;;;;;5092930;28;19938;-69
2021/09/03 02:15:31;;;;;;;;;;;21.50;99.90;;;;;;5094576;28;19952;-68
2021/09/03 02:17:58;;;;;;;;;;;21.40;99.90;;;;;;5093990;28;19913;-69
2021/09/03 02:20:25;;;;;;;;;;;21.50;99.90;;;;;;5094694;28;19915;-69
2021/09/03 02:22:51;;;;;;;;;;;21.40;99.90;;;;;;5095050;28;19915;-69
2021/09/03 02:25:18;;;;;;;;;;;21.30;99.90;;;;;;5097106;28;19912;-69
2021/09/03 02:27:45;;;;;;;;;;;21.30;99.90;;;;;;5100181;28;20351;-70
2021/09/03 02:30:12;;;;;;;;;;;21.30;99.90;;;;;;5095000;28;19916;-69
2021/09/03 02:32:40;;;;;;;;;;;21.30;99.90;;;;;;5093301;28;20322;-69
2021/09/03 02:35:07;;;;;;;;;;;21.30;99.90;;;;;;5093872;28;19922;-70
2021/09/03 02:37:33;;;;;;;;;;;21.30;99.90;;;;;;5093079;28;19912;-70
2021/09/03 02:40:00;;;;;;;;;;;21.30;99.90;;;;;;5093169;28;20351;-70
2021/09/03 02:42:27;;;;;;;;;;;21.30;99.90;;;;;;5093533;28;19920;-69
2021/09/03 02:44:54;;;;;;;;;;;21.50;99.90;;;;;;5093203;28;19912;-70
2021/09/03 02:47:23;;;;;;;;;;;21.50;99.90;;;;;;5090426;28;19955;-69
2021/09/03 02:49:50;;;;;;;;;;;21.40;99.90;;;;;;5086908;28;19947;-67
2021/09/03 02:52:17;;;;;;;;;;;21.30;99.90;;;;;;5092043;28;19963;-68
2021/09/03 02:54:44;;;;;;;;;;;21.20;99.90;;;;;;5093646;28;19988;-69
2021/09/03 02:57:10;;;;;;;;;;;21.20;99.90;;;;;;5093738;28;19954;-67
2021/09/03 02:59:37;;;;;;;;;;;21.20;99.90;;;;;;5092906;28;19916;-68
2021/09/03 03:02:07;;;;;;;;;;;21.20;99.90;;;;;;5091811;28;19971;-69
2021/09/03 03:04:34;;;;;;;;;;;21.30;99.90;;;;;;5091943;28;19912;-69
2021/09/03 03:07:00;;;;;;;;;;;21.30;99.90;;;;;;5092729;28;19977;-68
2021/09/03 03:09:27;;;;;;;;;;;21.20;99.90;;;;;;5093193;28;19915;-69
2021/09/03 03:11:54;;;;;;;;;;;21.20;99.90;;;;;;5093213;28;19908;-68
2021/09/03 03:14:27;;;;;;;;;;;21.10;99.90;;;;;;5093295;28;19965;-68
2021/09/03 03:16:54;;;;;;;;;;;21.20;99.90;;;;;;5092618;28;19912;-68
2021/09/03 03:19:21;;;;;;;;;;;21.20;99.90;;;;;;5092585;28;20294;-69
2021/09/03 03:21:48;;;;;;;;;;;21.20;99.90;;;;;;5092977;28;19970;-68
2021/09/03 03:24:15;;;;;;;;;;;21.00;99.90;;;;;;5093398;28;19916;-68
2021/09/03 03:26:41;;;;;;;;;;;21.00;99.90;;;;;;5093072;28;19908;-69
2021/09/03 03:29:09;;;;;;;;;;;21.00;99.90;;;;;;5091724;28;19920;-69
2021/09/03 03:31:36;;;;;;;;;;;21.10;99.90;;;;;;5091577;28;20387;-68
2021/09/03 03:34:02;;;;;;;;;;;21.10;99.90;;;;;;5091281;28;20045;-69
2021/09/03 03:36:29;;;;;;;;;;;21.00;99.90;;;;;;5091680;28;19920;-69
2021/09/03 03:38:56;;;;;;;;;;;21.00;99.90;;;;;;5091802;28;19912;-69
2021/09/03 03:41:23;;;;;;;;;;;20.90;99.90;;;;;;5088857;28;20282;-69
2021/09/03 03:43:50;;;;;;;;;;;20.90;99.90;;;;;;5091003;28;20002;-68
2021/09/03 03:46:16;;;;;;;;;;;20.90;99.90;;;;;;5091881;28;20060;-69
2021/09/03 03:48:43;;;;;;;;;;;20.90;99.90;;;;;;5091986;28;19920;-69
2021/09/03 03:51:12;;;;;;;;;;;20.90;99.90;;;;;;5091756;28;20268;-70
2021/09/03 03:53:40;;;;;;;;;;;21.10;99.90;;;;;;5090686;28;19919;-70
2021/09/03 03:56:07;;;;;;;;;;;20.90;99.90;;;;;;5092992;28;20286;-68
2021/09/03 03:58:33;;;;;;;;;;;20.90;99.90;;;;;;5093172;28;20287;-69
2021/09/03 04:01:00;;;;;;;;;;;20.90;99.90;;;;;;5091241;28;20290;-69
2021/09/03 04:03:27;;;;;;;;;;;21.00;99.90;;;;;;5093060;28;19916;-69
2021/09/03 04:05:58;;;;;;;;;;;21.00;99.90;;;;;;5091474;28;20390;-69
2021/09/03 04:08:24;;;;;;;;;;;21.10;99.90;;;;;;5091627;28;19927;-68
2021/09/03 04:10:51;;;;;;;;;;;21.00;99.90;;;;;;5092546;28;19909;-68
2021/09/03 04:13:19;;;;;;;;;;;21.00;99.90;;;;;;5092524;28;19953;-69
2021/09/03 04:15:47;;;;;;;;;;;21.00;99.90;;;;;;5092483;28;19944;-69
2021/09/03 04:18:14;;;;;;;;;;;21.00;99.90;;;;;;5095743;28;19920;-70
2021/09/03 04:20:41;;;;;;;;;;;21.00;99.90;;;;;;5095566;28;19912;-70
2021/09/03 04:23:09;;;;;;;;;;;21.10;99.90;;;;;;5096367;28;19923;-68
2021/09/03 04:25:36;;;;;;;;;;;21.00;99.90;;;;;;5095750;28;19912;-68
2021/09/03 04:28:03;;;;;;;;;;;20.90;99.90;;;;;;5096160;28;19946;-69
2021/09/03 04:30:29;;;;;;;;;;;20.70;99.90;;;;;;5094898;28;20298;-68
2021/09/03 04:32:56;;;;;;;;;;;20.70;99.90;;;;;;5096176;28;19908;-68
2021/09/03 04:35:23;;;;;;;;;;;20.80;99.90;;;;;;5095519;28;19959;-69
2021/09/03 04:37:51;;;;;;;;;;;20.60;99.90;;;;;;5096091;28;19912;-69
2021/09/03 04:40:21;;;;;;;;;;;20.70;99.90;;;;;;5095641;28;20258;-69
2021/09/03 04:42:48;;;;;;;;;;;20.70;99.90;;;;;;5094746;28;19948;-68
2021/09/03 04:45:15;;;;;;;;;;;20.70;99.90;;;;;;5117032;27;19912;-69
2021/09/03 04:47:42;;;;;;;;;;;20.60;99.90;;;;;;5095588;28;19927;-67
2021/09/03 04:50:09;;;;;;;;;;;20.50;99.90;;;;;;5095911;28;19912;-68
2021/09/03 04:52:36;;;;;;;;;;;20.50;99.90;;;;;;5096037;28;19908;-69
2021/09/03 04:55:04;;;;;;;;;;;20.60;99.90;;;;;;5096130;28;19947;-69
2021/09/03 04:57:30;;;;;;;;;;;20.60;99.90;;;;;;5092857;28;20022;-70
2021/09/03 04:59:57;;;;;;;;;;;20.60;99.90;;;;;;5099056;28;19912;-68
2021/09/03 05:02:24;;;;;;;;;;;20.60;99.90;;;;;;5094470;28;19908;-69
2021/09/03 05:04:50;;;;;;;;;;;20.60;99.90;;;;;;5095994;28;19912;-68
2021/09/03 05:07:17;;;;;;;;;;;20.50;99.90;;;;;;5095910;28;19980;-69
2021/09/03 05:09:43;;;;;;;;;;;20.50;99.90;;;;;;5095545;28;20390;-68
2021/09/03 05:12:10;;;;;;;;;;;20.30;99.90;;;;;;5095790;28;20363;-68
2021/09/03 05:14:40;;;;;;;;;;;20.40;99.90;;;;;;5095239;28;19935;-69
2021/09/03 05:17:06;;;;;;;;;;;20.30;99.90;;;;;;5095531;28;20017;-68
2021/09/03 05:19:33;;;;;;;;;;;20.30;99.90;;;;;;5094343;28;19966;-69
2021/09/03 05:22:00;;;;;;;;;;;20.30;99.90;;;;;;5093983;28;19919;-69
2021/09/03 05:24:26;;;;;;;;;;;20.30;99.90;;;;;;5094453;28;19912;-70
2021/09/03 05:26:53;;;;;;;;;;;20.40;99.90;;;;;;5094751;28;19908;-70
2021/09/03 05:29:20;;;;;;;;;;;20.20;99.90;;;;;;5095580;28;19923;-71
2021/09/03 05:31:46;;;;;;;;;;;20.20;99.90;;;;;;5096806;28;19908;-70
2021/09/03 05:34:13;;;;;;;;;;;20.10;99.90;;;;;;5099826;28;19919;-69
2021/09/03 05:36:40;;;;;;;;;;;20.10;99.90;;;;;;5097444;28;20339;-69
2021/09/03 05:39:08;;;;;;;;;;;20.10;99.90;;;;;;5095260;28;19909;-68
2021/09/03 05:41:34;;;;;;;;;;;20.00;99.90;;;;;;5095001;28;20301;-68
2021/09/03 05:44:01;;;;;;;;;;;20.00;99.90;;;;;;5094923;28;19931;-70
2021/09/03 05:46:28;;;;;;;;;;;19.90;99.90;;;;;;5094960;28;19927;-69
2021/09/03 05:48:54;;;;;;;;;;;19.90;99.90;;;;;;5094946;28;19917;-69
2021/09/03 05:51:21;;;;;;;;;;;19.90;99.90;;;;;;5094589;28;19911;-69
2021/09/03 05:53:48;;;;;;;;;;;19.70;99.90;;;;;;5091265;28;19912;-68
2021/09/03 05:56:14;;;;;;;;;;;19.70;99.90;;;;;;5093432;28;20287;-69
2021/09/03 05:58:41;;;;;;;;;;;19.60;99.90;;;;;;5074371;28;19915;-69
2021/09/03 06:01:08;;;;;;;;;;;19.60;99.90;;;;;;5074484;28;19923;-68
2021/09/03 06:03:34;;;;;;;;;;;19.60;99.90;;;;;;5094149;28;19938;-70
2021/09/03 06:06:01;;;;;;;;;;;19.60;99.90;;;;;;5094627;28;19908;-70
2021/09/03 06:08:28;;;;;;;;;;;19.60;99.90;;;;;;5093609;28;20347;-69
2021/09/03 06:10:54;;;;;;;;;;;19.60;99.90;;;;;;5074214;28;20310;-69
2021/09/03 06:13:21;;;;;;;;;;;19.50;99.90;;;;;;5073974;28;20301;-70
2021/09/03 06:15:48;;;;;;;;;;;19.50;99.90;;;;;;5073957;28;19934;-69
2021/09/03 06:18:14;;;;;;;;;;;19.60;99.90;;;;;;5091570;28;20014;-70
2021/09/03 06:20:41;;;;;;;;;;;19.50;99.90;;;;;;5094157;28;20377;-70
2021/09/03 06:23:08;;;;;;;;;;;19.50;99.90;;;;;;5094167;28;19962;-70
2021/09/03 06:25:34;;;;;;;;;;;19.50;99.90;;;;;;5094041;28;19955;-69
2021/09/03 06:28:01;;;;;;;;;;;19.40;99.90;;;;;;5093889;28;19926;-69
2021/09/03 06:30:28;;;;;;;;;;;19.30;99.90;;;;;;5092866;28;19927;-69
2021/09/03 06:32:54;;;;;;;;;;;19.30;99.90;;;;;;5094224;28;20357;-69
2021/09/03 06:35:21;;;;;;;;;;;19.30;99.90;;;;;;5094036;28;19915;-69
2021/09/03 06:37:48;;;;;;;;;;;19.20;99.90;;;;;;5093484;28;19923;-70
2021/09/03 06:40:14;;;;;;;;;;;19.20;99.90;;;;;;5093920;28;20350;-69
2021/09/03 06:42:41;;;;;;;;;;;19.10;99.90;;;;;;5093764;28;20005;-69
2021/09/03 06:45:09;;;;;;;;;;;19.10;99.90;;;;;;5093855;28;20293;-69
2021/09/03 06:47:36;;;;;;;;;;;19.00;99.90;;;;;;5093605;28;19927;-69
2021/09/03 06:50:05;;;;;;;;;;;19.00;99.90;;;;;;5093567;28;19931;-69
2021/09/03 06:52:31;;;;;;;;;;;18.90;99.90;;;;;;5092248;28;20309;-69
2021/09/03 06:54:59;;;;;;;;;;;18.80;99.90;;;;;;5093239;28;20008;-69
2021/09/03 06:57:26;;;;;;;;;;;18.80;99.90;;;;;;5092435;28;19999;-69
2021/09/03 06:59:53;;;;;;;;;;;18.80;99.90;;;;;;5092922;28;19919;-69
2021/09/03 07:02:19;;;;;;;;;;;18.80;99.90;;;;;;5093326;28;20208;-69
2021/09/03 07:04:46;;;;;;;;;;;18.70;99.90;;;;;;5093301;28;20362;-70
2021/09/03 07:07:13;;;;;;;;;;;18.70;99.90;;;;;;5091201;28;20389;-69
2021/09/03 07:09:40;;;;;;;;;;;18.70;99.90;;;;;;5090946;28;19920;-70
2021/09/03 07:12:06;;;;;;;;;;;18.60;99.90;;;;;;5090880;28;19963;-69
2021/09/03 07:14:33;;;;;;;;;;;18.60;99.90;;;;;;5090820;28;19909;-69
2021/09/03 07:17:00;;;;;;;;;;;18.60;99.90;;;;;;5091178;28;19908;-69
2021/09/03 07:19:27;;;;;;;;;;;18.50;99.90;;;;;;5090806;28;19912;-69
2021/09/03 07:21:53;;;;;;;;;;;18.50;99.90;;;;;;5090833;28;19908;-69
2021/09/03 07:24:20;;;;;;;;;;;18.50;99.90;;;;;;5089666;28;19935;-69
2021/09/03 07:26:47;;;;;;;;;;;18.50;99.90;;;;;;5090712;28;20470;-69
2021/09/03 07:29:13;;;;;;;;;;;18.50;99.90;;;;;;5090842;28;20390;-69
2021/09/03 07:31:40;;;;;;;;;;;18.40;99.90;;;;;;5089256;28;20000;-69
2021/09/03 07:34:07;;;;;;;;;;;18.40;99.90;;;;;;5090536;28;19923;-68
2021/09/03 07:36:33;;;;;;;;;;;18.40;99.90;;;;;;5090979;28;20007;-69
2021/09/03 07:39:00;;;;;;;;;;;18.40;99.90;;;;;;5088817;28;19982;-69
2021/09/03 07:41:27;;;;;;;;;;;18.40;99.90;;;;;;5090289;28;19920;-68
2021/09/03 07:43:53;;;;;;;;;;;18.30;99.90;;;;;;5089683;28;19912;-69
2021/09/03 07:46:20;;;;;;;;;;;18.30;99.90;;;;;;5089639;28;19943;-68
2021/09/03 07:48:47;;;;;;;;;;;18.30;99.90;;;;;;5090697;28;20485;-69
2021/09/03 07:51:15;;;;;;;;;;;18.30;99.90;;;;;;5089707;28;19923;-69
2021/09/03 07:53:42;;;;;;;;;;;18.20;99.90;;;;;;5090432;28;19908;-69
2021/09/03 07:56:08;;;;;;;;;;;18.20;99.90;;;;;;5090248;28;19916;-69
2021/09/03 07:58:35;;;;;;;;;;;18.20;99.90;;;;;;5072087;28;20260;-68
2021/09/03 08:01:03;;;;;;;;;;;18.20;99.90;;;;;;5090316;28;19912;-69
2021/09/03 08:03:30;;;;;;;;;;;18.20;99.90;;;;;;5090366;28;19912;-69
2021/09/03 08:05:57;;;;;;;;;;;18.20;99.90;;;;;;5090346;28;19915;-69
2021/09/03 08:08:24;;;;;;;;;;;18.20;99.90;;;;;;5090597;28;19916;-68
2021/09/03 08:10:50;;;;;;;;;;;18.10;99.90;;;;;;5090380;28;20223;-69
2021/09/03 08:13:17;;;;;;;;;;;18.10;99.90;;;;;;5088780;28;19943;-70
2021/09/03 08:15:44;;;;;;;;;;;18.10;99.90;;;;;;5090380;28;19916;-69
2021/09/03 08:18:11;;;;;;;;;;;18.10;99.90;;;;;;5090606;28;19912;-69
2021/09/03 08:20:38;;;;;;;;;;;18.10;99.90;;;;;;5090537;28;20273;-71
2021/09/03 08:23:04;;;;;;;;;;;18.10;99.90;;;;;;5089137;28;20282;-70
2021/09/03 08:25:31;;;;;;;;;;;18.10;99.90;;;;;;5089608;28;19916;-70
2021/09/03 08:27:58;;;;;;;;;;;18.10;99.90;;;;;;5090109;28;19967;-70
2021/09/03 08:30:26;;;;;;;;;;;18.10;99.90;;;;;;5090161;28;19908;-69
2021/09/03 08:32:53;;;;;;;;;;;18.00;99.90;;;;;;5090187;28;19977;-69
2021/09/03 08:35:19;;;;;;;;;;;18.00;99.90;;;;;;5090212;28;19916;-69
2021/09/03 08:37:46;;;;;;;;;;;18.00;99.90;;;;;;5089894;28;20045;-69
2021/09/03 08:40:13;;;;;;;;;;;18.00;99.90;;;;;;5089723;28;19908;-69
2021/09/03 08:42:40;;;;;;;;;;;17.90;99.90;;;;;;5089309;28;19916;-70
2021/09/03 08:45:11;;;;;;;;;;;18.00;99.90;;;;;;5089071;28;19919;-69
2021/09/03 08:47:41;;;;;;;;;;;18.00;99.90;;;;;;5088969;28;19931;-70
2021/09/03 08:50:09;;;;;;;;;;;17.90;99.90;;;;;;5089888;28;20367;-69
2021/09/03 08:52:36;;;;;;;;;;;17.90;99.90;;;;;;5088532;28;20332;-69
2021/09/03 08:55:04;;;;;;;;;;;17.90;99.90;;;;;;5088615;28;19916;-69
2021/09/03 08:57:30;;;;;;;;;;;17.90;99.90;;;;;;5087566;28;20255;-70
2021/09/03 09:00:01;;;;;;;;;;;17.90;99.90;;;;;;5088225;28;20291;-70
2021/09/03 09:02:28;;;;;;;;;;;17.90;99.90;;;;;;5091641;28;19915;-70
2021/09/03 09:04:54;;;;;;;;;;;17.90;99.90;;;;;;5093015;28;19959;-70
2021/09/03 09:07:25;;;;;;;;;;;17.90;99.90;;;;;;5093294;28;20380;-69
2021/09/03 09:09:52;;;;;;;;;;;17.90;99.90;;;;;;5093225;28;19959;-69
2021/09/03 09:12:19;;;;;;;;;;;17.90;99.90;;;;;;5093132;28;19920;-69
2021/09/03 09:15:18;;;;;;;;;;;17.90;99.90;;;;;;5093346;28;19916;-69
2021/09/03 09:17:44;;;;;;;;;;;17.80;99.90;;;;;;5052649;28;20369;-70
2021/09/03 09:20:12;;;;;;;;;;;17.80;99.90;;;;;;5092606;28;20367;-70
2021/09/03 09:22:57;;;;;;;;;;;17.80;99.90;;;;;;5094038;28;19912;-70
2021/09/03 09:25:23;;;;;;;;;;;17.80;99.90;;;;;;5092374;28;20355;-70
2021/09/03 09:27:50;;;;;;;;;;;17.80;99.90;;;;;;5092256;28;19924;-70
2021/09/03 09:30:22;;;;;;;;;;;17.80;99.90;;;;;;5114271;27;20320;-70
2021/09/03 09:33:06;;;;;;;;;;;17.80;99.90;;;;;;5072867;28;19956;-70
2021/09/03 09:35:38;;;;;;;;;;;17.80;99.90;;;;;;5086080;28;19909;-69
2021/09/03 09:38:07;;;;;;;;;;;17.70;99.90;;;;;;5093310;28;19908;-71
2021/09/03 09:40:44;;;;;;;;;;;17.70;99.90;;;;;;5093104;28;20330;-70
2021/09/03 09:43:23;;;;;;;;;;;17.70;99.90;;;;;;5091298;28;20018;-70
2021/09/03 09:46:08;;;;;;;;;;;17.70;99.90;;;;;;5082332;28;19970;-69
2021/09/03 09:48:53;;;;;;;;;;;17.70;99.90;;;;;;5092932;28;19916;-69
2021/09/03 09:51:25;;;;;;;;;;;17.70;99.90;;;;;;5072648;28;20409;-70
2021/09/03 09:53:55;;;;;;;;;;;17.80;99.90;;;;;;5072645;28;19912;-70
2021/09/03 09:56:22;;;;;;;;;;;17.70;99.90;;;;;;5074870;28;20334;-70
2021/09/03 09:58:53;;;;;;;;;;;17.70;99.90;;;;;;5092653;28;20379;-69
2021/09/03 10:01:20;;;;;;;;;;;17.70;99.90;;;;;;5092798;28;19912;-68
2021/09/03 10:03:47;;;;;;;;;;;17.60;99.90;;;;;;5092480;28;19916;-68
2021/09/03 10:06:18;;;;;;;;;;;17.60;99.90;;;;;;5092310;28;19912;-68
2021/09/03 10:08:46;;;;;;;;;;;17.60;99.90;;;;;;5090144;28;19928;-69
2021/09/03 10:11:19;;;;;;;;;;;17.60;99.90;;;;;;5081032;28;20101;-68
2021/09/03 10:13:47;;;;;;;;;;;17.60;99.90;;;;;;5091733;28;19969;-69
2021/09/03 10:16:14;;;;;;;;;;;17.60;99.90;;;;;;5092564;28;19919;-68
2021/09/03 10:18:41;;;;;;;;;;;17.60;99.90;;;;;;5092127;28;19923;-68
2021/09/03 10:21:08;;;;;;;;;;;17.50;99.90;;;;;;5092263;28;19916;-69
2021/09/03 10:23:47;;;;;;;;;;;17.50;99.90;;;;;;5091639;28;19955;-69
2021/09/03 10:26:14;;;;;;;;;;;17.50;99.90;;;;;;5092408;28;19919;-69
2021/09/03 10:28:41;;;;;;;;;;;17.50;99.90;;;;;;5091801;28;19950;-69
2021/09/03 10:31:08;;;;;;;;;;;17.50;99.90;;;;;;5089725;28;20421;-69
2021/09/03 10:33:37;;;;;;;;;;;17.50;99.90;;;;;;5091184;28;19916;-69
2021/09/03 10:36:03;;;;;;;;;;;17.50;99.90;;;;;;5091330;28;19966;-69
2021/09/03 10:38:31;;;;;;;;;;;17.50;99.90;;;;;;5091709;28;19920;-69
2021/09/03 10:40:59;;;;;;;;;;;17.40;99.90;;;;;;5090021;28;19919;-69
2021/09/03 10:43:45;;;;;;;;;;;17.40;99.90;;;;;;5090742;28;20642;-69
2021/09/03 10:46:16;;;;;;;;;;;17.40;99.90;;;;;;5081673;28;20423;-69
2021/09/03 10:48:55;;;;;;;;;;;17.40;99.90;;;;;;5091498;28;20361;-70
2021/09/03 10:51:35;;;;;;;;;;;17.40;99.90;;;;;;5090253;28;19916;-70
2021/09/03 10:54:14;;;;;;;;;;;17.40;99.90;;;;;;5091338;28;19932;-70
2021/09/03 10:56:52;;;;;;;;;;;17.40;99.90;;;;;;5090643;28;19912;-69
2021/09/03 10:59:19;;;;;;;;;;;17.40;99.90;;;;;;5091911;28;19927;-70
2021/09/03 11:01:50;;;;;;;;;;;17.40;99.90;;;;;;5091111;28;19919;-70
2021/09/03 11:04:17;;;;;;;;;;;17.40;99.90;;;;;;5091321;28;19912;-70
2021/09/03 11:06:56;;;;;;;;;;;17.40;99.90;;;;;;5091316;28;20385;-70
2021/09/03 11:09:32;;;;;;;;;;;17.40;99.90;;;;;;5090671;28;19928;-69
2021/09/03 11:11:59;;;;;;;;;;;17.40;99.90;;;;;;5091367;28;19908;-69
2021/09/03 11:14:29;;;;;;;;;;;17.30;99.90;;;;;;5091519;28;19915;-69
2021/09/03 11:16:57;;;;;;;;;;;17.30;99.90;;;;;;5090983;28;19950;-69
2021/09/03 11:19:35;;;;;;;;;;;17.30;99.90;;;;;;5090596;28;19920;-68
2021/09/03 11:22:06;;;;;;;;;;;17.40;99.90;;;;;;5090463;28;19919;-69
2021/09/03 11:24:41;;;;;;;;;;;17.30;99.90;;;;;;5090327;28;20445;-69
2021/09/03 11:27:12;;;;;;;;;;;17.30;99.90;;;;;;5090415;28;19924;-68
2021/09/03 11:29:41;;;;;;;;;;;17.30;99.90;;;;;;5090260;28;20358;-68
2021/09/03 11:32:09;;;;;;;;;;;17.20;99.90;;;;;;5070564;28;19913;-68
2021/09/03 11:34:42;;;;;;;;;;;17.30;99.90;;;;;;5070679;28;20252;-68
2021/09/03 11:37:08;;;;;;;;;;;17.30;99.90;;;;;;5073010;28;20009;-68
2021/09/03 11:39:36;;;;;;;;;;;17.30;99.90;;;;;;5090807;28;19947;-70
2021/09/03 11:42:03;;;;;;;;;;;17.30;99.90;;;;;;5090696;28;20389;-68
2021/09/03 11:44:29;;;;;;;;;;;17.30;99.90;;;;;;5090489;28;19982;-68
2021/09/03 11:46:56;;;;;;;;;;;17.30;99.90;;;;;;5089494;28;19927;-68
2021/09/03 11:49:23;;;;;;;;;;;17.30;99.90;;;;;;5073790;28;20087;-69
2021/09/03 11:52:04;;;;;;;;;;;17.30;99.90;;;;;;5075082;28;19935;-69
2021/09/03 11:54:30;;;;;;;;;;;17.30;99.90;;;;;;5070660;28;19999;-69
2021/09/03 11:56:58;;;;;;;;;;;17.30;99.90;;;;;;5089495;28;19916;-69
2021/09/03 11:59:24;;;;;;;;;;;17.30;99.90;;;;;;5090658;28;19978;-69
2021/09/03 12:02:02;;;;;;;;;;;17.30;99.90;;;;;;5090113;28;19926;-69
2021/09/03 12:04:29;;;;;;;;;;;17.30;99.90;;;;;;5090029;28;20304;-69
2021/09/03 12:06:55;;;;;;;;;;;17.30;99.90;;;;;;5089847;28;19916;-69
2021/09/03 12:09:34;;;;;;;;;;;17.20;99.90;;;;;;5090329;28;19962;-70
2021/09/03 12:12:01;;;;;;;;;;;17.20;99.90;;;;;;5090477;28;20387;-70
2021/09/03 12:14:27;;;;;;;;;;;17.20;99.90;;;;;;5090306;28;19916;-69
2021/09/03 12:16:54;;;;;;;;;;;17.20;99.90;;;;;;5088229;28;19920;-70
2021/09/03 12:19:23;;;;;;;;;;;17.20;99.90;;;;;;5086368;28;19919;-69
2021/09/03 12:21:50;;;;;;;;;;;17.20;99.90;;;;;;5090074;28;19998;-69
2021/09/03 12:24:17;;;;;;;;;;;17.20;99.90;;;;;;5089577;28;20428;-69
2021/09/03 12:26:49;;;;;;;;;;;17.20;99.90;;;;;;5088195;28;19970;-69
2021/09/03 12:29:17;;;;;;;;;;;17.20;99.90;;;;;;5090185;28;19924;-69
2021/09/03 12:31:51;;;;;;;;;;;17.10;99.90;;;;;;5090162;28;20003;-69
2021/09/03 12:34:18;;;;;;;;;;;17.10;99.90;;;;;;5089862;28;20004;-69
2021/09/03 12:36:45;;;;;;;;;;;17.10;99.90;;;;;;5089484;28;19995;-70
2021/09/03 12:39:21;;;;;;;;;;;17.10;99.90;;;;;;5093471;28;19912;-71
2021/09/03 12:41:48;;;;;;;;;;;17.10;99.90;;;;;;5092983;28;19924;-70
2021/09/03 12:44:23;;;;;;;;;;;17.10;99.90;;;;;;5094022;28;19934;-69
2021/09/03 12:46:51;;;;;;;;;;;17.20;99.90;;;;;;5107977;27;19986;-71
2021/09/03 12:49:28;;;;;;;;;;;17.20;99.90;;;;;;5080650;28;19928;-69
2021/09/03 12:52:02;;;;;;;;;;;17.20;99.90;;;;;;5093706;28;20339;-69
2021/09/03 12:54:29;;;;;;;;;;;17.10;99.90;;;;;;5093664;28;19912;-69
2021/09/03 12:56:56;;;;;;;;;;;17.10;99.90;;;;;;5093166;28;19916;-69
2021/09/03 12:59:23;;;;;;;;;;;17.10;99.90;;;;;;5091846;28;19916;-68
2021/09/03 13:01:51;;;;;;;;;;;17.10;99.90;;;;;;5093040;28;19924;-68
2021/09/03 13:04:19;;;;;;;;;;;17.10;99.90;;;;;;5093584;28;20034;-68
2021/09/03 13:06:49;;;;;;;;;;;17.00;99.90;;;;;;5093100;28;19916;-69
2021/09/03 13:09:16;;;;;;;;;;;17.00;99.90;;;;;;5093263;28;19966;-70
2021/09/03 13:11:43;;;;;;;;;;;17.00;99.90;;;;;;5091398;28;19990;-70
2021/09/03 13:14:10;;;;;;;;;;;17.00;99.90;;;;;;5093469;28;19912;-70
2021/09/03 13:16:38;;;;;;;;;;;17.00;99.90;;;;;;5093299;28;19916;-69
2021/09/03 13:19:08;;;;;;;;;;;17.00;99.90;;;;;;5093177;28;19916;-69
2021/09/03 13:21:35;;;;;;;;;;;17.00;99.90;;;;;;5093010;28;19912;-69
2021/09/03 13:24:02;;;;;;;;;;;16.90;99.90;;;;;;5093442;28;20451;-69
2021/09/03 13:26:30;;;;;;;;;;;16.90;99.90;;;;;;5092157;28;20014;-69
2021/09/03 13:28:57;;;;;;;;;;;16.90;99.90;;;;;;5092697;28;20022;-69
2021/09/03 13:31:24;;;;;;;;;;;16.90;99.90;;;;;;5093208;28;19930;-68
2021/09/03 13:33:52;;;;;;;;;;;16.90;99.90;;;;;;5091893;28;19916;-69
2021/09/03 13:36:20;;;;;;;;;;;16.90;99.90;;;;;;5092515;28;20411;-68
2021/09/03 13:38:47;;;;;;;;;;;16.90;99.90;;;;;;5093317;28;19936;-68
2021/09/03 13:41:15;;;;;;;;;;;16.90;99.90;;;;;;5092691;28;19916;-68
2021/09/03 13:43:41;;;;;;;;;;;16.90;99.90;;;;;;5092581;28;20416;-68
2021/09/03 13:46:08;;;;;;;;;;;16.90;99.90;;;;;;5092283;28;19931;-68
2021/09/03 13:48:35;;;;;;;;;;;16.90;99.90;;;;;;5089869;28;19924;-68
2021/09/03 13:51:01;;;;;;;;;;;16.90;99.90;;;;;;5092696;28;19907;-68
2021/09/03 13:53:30;;;;;;;;;;;16.90;99.90;;;;;;5092504;28;19986;-69
2021/09/03 13:55:58;;;;;;;;;;;16.90;99.90;;;;;;5090218;28;19920;-69
2021/09/03 13:58:25;;;;;;;;;;;16.80;99.90;;;;;;5092383;28;20251;-68
2021/09/03 14:00:51;;;;;;;;;;;16.80;99.90;;;;;;5091955;28;20433;-68
2021/09/03 14:03:18;;;;;;;;;;;16.80;99.90;;;;;;5092401;28;19965;-69
2021/09/03 14:05:45;;;;;;;;;;;16.70;99.90;;;;;;5092280;28;19970;-69
2021/09/03 14:08:11;;;;;;;;;;;16.80;99.90;;;;;;5091998;28;20477;-69
2021/09/03 14:10:38;;;;;;;;;;;16.70;99.90;;;;;;5092125;28;19916;-68
2021/09/03 14:13:05;;;;;;;;;;;16.70;99.90;;;;;;5091356;28;19985;-69
2021/09/03 14:15:32;;;;;;;;;;;16.70;99.90;;;;;;5091604;28;20007;-69
2021/09/03 14:18:00;;;;;;;;;;;16.70;99.90;;;;;;5092140;28;19912;-69
2021/09/03 14:20:27;;;;;;;;;;;16.70;99.90;;;;;;5092117;28;19916;-68